sensor_id;sensor_type;location;lat;lon;timestamp;P1;durP1;ratioP1;P2;durP2;ratioP2
27802;SDS011;15182;48.174;11.562;2023-05-14T00:02:13;8.50;;;7.73;;
27802;SDS011;15182;48.174;11.562;2023-05-14T00:04:41;8.47;;;7.77;;
27802;SDS011;15182;48.174;11.562;2023-05-14T00:07:10;7.97;;;7.17;;
27802;SDS011;15182;48.174;11.562;2023-05-14T00:09:38;7.87;;;7.23;;
27802;SDS011;15182;48.174;11.562;2023-05-14T00:12:06;8.17;;;7.37;;
27802;SDS011;15182;48.174;11.562;2023-05-14T00:14:34;8.17;;;7.43;;
27802;SDS011;15182;48.174;11.562;2023-05-14T00:17:01;7.73;;;7.13;;
27802;SDS011;15182;48.174;11.562;2023-05-14T00:19:29;8.47;;;7.70;;
27802;SDS011;15182;48.174;11.562;2023-05-14T00:21:57;7.60;;;7.00;;
27802;SDS011;15182;48.174;11.562;2023-05-14T00:24:26;8.10;;;7.47;;
27802;SDS011;15182;48.174;11.562;2023-05-14T00:26:54;8.40;;;7.60;;
27802;SDS011;15182;48.174;11.562;2023-05-14T00:29:22;7.97;;;7.27;;
27802;SDS011;15182;48.174;11.562;2023-05-14T00:31:49;7.87;;;7.20;;
27802;SDS011;15182;48.174;11.562;2023-05-14T00:34:17;7.53;;;6.93;;
27802;SDS011;15182;48.174;11.562;2023-05-14T00:36:45;8.63;;;7.80;;
27802;SDS011;15182;48.174;11.562;2023-05-14T00:39:13;10.73;;;8.50;;
27802;SDS011;15182;48.174;11.562;2023-05-14T00:41:42;8.33;;;7.43;;
27802;SDS011;15182;48.174;11.562;2023-05-14T00:44:09;8.30;;;7.50;;
27802;SDS011;15182;48.174;11.562;2023-05-14T00:46:37;8.90;;;8.10;;
27802;SDS011;15182;48.174;11.562;2023-05-14T00:49:05;7.73;;;7.03;;
27802;SDS011;15182;48.174;11.562;2023-05-14T00:51:33;8.03;;;7.23;;
27802;SDS011;15182;48.174;11.562;2023-05-14T00:54:01;7.67;;;6.93;;
27802;SDS011;15182;48.174;11.562;2023-05-14T00:56:28;8.00;;;7.40;;
27802;SDS011;15182;48.174;11.562;2023-05-14T00:58:58;8.33;;;7.47;;
27802;SDS011;15182;48.174;11.562;2023-05-14T01:01:26;8.03;;;7.30;;
27802;SDS011;15182;48.174;11.562;2023-05-14T01:03:54;7.53;;;6.93;;
27802;SDS011;15182;48.174;11.562;2023-05-14T01:06:24;7.90;;;7.20;;
27802;SDS011;15182;48.174;11.562;2023-05-14T01:08:58;7.97;;;7.27;;
27802;SDS011;15182;48.174;11.562;2023-05-14T01:11:35;8.23;;;7.43;;
27802;SDS011;15182;48.174;11.562;2023-05-14T01:14:15;7.50;;;6.90;;
27802;SDS011;15182;48.174;11.562;2023-05-14T01:16:47;8.87;;;7.97;;
27802;SDS011;15182;48.174;11.562;2023-05-14T01:19:20;8.13;;;7.33;;
27802;SDS011;15182;48.174;11.562;2023-05-14T01:22:06;8.30;;;7.50;;
27802;SDS011;15182;48.174;11.562;2023-05-14T01:24:35;7.90;;;7.10;;
27802;SDS011;15182;48.174;11.562;2023-05-14T01:27:05;7.80;;;7.17;;
27802;SDS011;15182;48.174;11.562;2023-05-14T01:29:37;8.77;;;7.90;;
27802;SDS011;15182;48.174;11.562;2023-05-14T01:32:09;9.40;;;7.57;;
27802;SDS011;15182;48.174;11.562;2023-05-14T01:34:39;8.30;;;7.57;;
27802;SDS011;15182;48.174;11.562;2023-05-14T01:37:09;8.07;;;7.27;;
27802;SDS011;15182;48.174;11.562;2023-05-14T01:39:38;7.67;;;6.87;;
27802;SDS011;15182;48.174;11.562;2023-05-14T01:42:08;7.93;;;7.33;;
27802;SDS011;15182;48.174;11.562;2023-05-14T01:44:36;7.90;;;7.37;;
27802;SDS011;15182;48.174;11.562;2023-05-14T01:47:04;8.03;;;7.30;;
27802;SDS011;15182;48.174;11.562;2023-05-14T01:49:32;8.87;;;8.07;;
27802;SDS011;15182;48.174;11.562;2023-05-14T01:51:59;8.30;;;7.50;;
27802;SDS011;15182;48.174;11.562;2023-05-14T01:54:28;8.87;;;8.00;;
27802;SDS011;15182;48.174;11.562;2023-05-14T01:56:56;9.50;;;7.97;;
27802;SDS011;15182;48.174;11.562;2023-05-14T01:59:24;8.63;;;7.93;;
27802;SDS011;15182;48.174;11.562;2023-05-14T02:01:54;8.40;;;7.60;;
27802;SDS011;15182;48.174;11.562;2023-05-14T02:04:21;8.77;;;7.90;;
27802;SDS011;15182;48.174;11.562;2023-05-14T02:06:49;9.90;;;7.90;;
27802;SDS011;15182;48.174;11.562;2023-05-14T02:09:17;9.27;;;8.17;;
27802;SDS011;15182;48.174;11.562;2023-05-14T02:11:47;8.47;;;7.77;;
27802;SDS011;15182;48.174;11.562;2023-05-14T02:14:14;8.97;;;8.07;;
27802;SDS011;15182;48.174;11.562;2023-05-14T02:16:42;8.10;;;7.33;;
27802;SDS011;15182;48.174;11.562;2023-05-14T02:19:10;10.27;;;8.67;;
27802;SDS011;15182;48.174;11.562;2023-05-14T02:21:37;9.27;;;8.27;;
27802;SDS011;15182;48.174;11.562;2023-05-14T02:24:05;8.93;;;8.13;;
27802;SDS011;15182;48.174;11.562;2023-05-14T02:26:33;9.07;;;8.23;;
27802;SDS011;15182;48.174;11.562;2023-05-14T02:29:02;8.73;;;7.93;;
27802;SDS011;15182;48.174;11.562;2023-05-14T02:31:30;8.40;;;7.70;;
27802;SDS011;15182;48.174;11.562;2023-05-14T02:33:59;7.43;;;6.90;;
27802;SDS011;15182;48.174;11.562;2023-05-14T02:36:27;8.43;;;7.73;;
27802;SDS011;15182;48.174;11.562;2023-05-14T02:38:57;8.83;;;8.03;;
27802;SDS011;15182;48.174;11.562;2023-05-14T02:41:25;7.37;;;6.87;;
27802;SDS011;15182;48.174;11.562;2023-05-14T02:43:53;7.47;;;6.87;;
27802;SDS011;15182;48.174;11.562;2023-05-14T02:46:22;10.73;;;7.40;;
27802;SDS011;15182;48.174;11.562;2023-05-14T02:48:50;6.67;;;6.17;;
27802;SDS011;15182;48.174;11.562;2023-05-14T02:51:18;7.83;;;7.20;;
27802;SDS011;15182;48.174;11.562;2023-05-14T02:53:46;8.60;;;7.83;;
27802;SDS011;15182;48.174;11.562;2023-05-14T02:56:14;9.10;;;8.33;;
27802;SDS011;15182;48.174;11.562;2023-05-14T02:58:42;8.60;;;7.80;;
27802;SDS011;15182;48.174;11.562;2023-05-14T03:01:09;8.03;;;7.40;;
27802;SDS011;15182;48.174;11.562;2023-05-14T03:03:38;11.33;;;7.63;;
27802;SDS011;15182;48.174;11.562;2023-05-14T03:06:06;10.43;;;7.87;;
27802;SDS011;15182;48.174;11.562;2023-05-14T03:08:34;9.07;;;8.27;;
27802;SDS011;15182;48.174;11.562;2023-05-14T03:11:02;9.30;;;8.43;;
27802;SDS011;15182;48.174;11.562;2023-05-14T03:13:29;8.43;;;7.73;;
27802;SDS011;15182;48.174;11.562;2023-05-14T03:15:57;7.83;;;7.23;;
27802;SDS011;15182;48.174;11.562;2023-05-14T03:18:25;9.07;;;8.17;;
27802;SDS011;15182;48.174;11.562;2023-05-14T03:20:56;8.73;;;7.93;;
27802;SDS011;15182;48.174;11.562;2023-05-14T03:23:24;8.03;;;7.33;;
27802;SDS011;15182;48.174;11.562;2023-05-14T03:25:52;7.57;;;6.93;;
27802;SDS011;15182;48.174;11.562;2023-05-14T03:28:19;8.47;;;7.67;;
27802;SDS011;15182;48.174;11.562;2023-05-14T03:30:47;9.07;;;8.27;;
27802;SDS011;15182;48.174;11.562;2023-05-14T03:33:15;8.57;;;7.87;;
27802;SDS011;15182;48.174;11.562;2023-05-14T03:35:43;12.60;;;8.43;;
27802;SDS011;15182;48.174;11.562;2023-05-14T03:38:12;12.80;;;7.40;;
27802;SDS011;15182;48.174;11.562;2023-05-14T03:40:39;9.07;;;7.43;;
27802;SDS011;15182;48.174;11.562;2023-05-14T03:43:07;8.73;;;7.60;;
27802;SDS011;15182;48.174;11.562;2023-05-14T03:45:36;11.10;;;8.83;;
27802;SDS011;15182;48.174;11.562;2023-05-14T03:48:04;10.73;;;8.20;;
27802;SDS011;15182;48.174;11.562;2023-05-14T03:50:32;11.20;;;9.30;;
27802;SDS011;15182;48.174;11.562;2023-05-14T03:53:00;10.07;;;9.03;;
27802;SDS011;15182;48.174;11.562;2023-05-14T03:55:30;12.27;;;9.23;;
27802;SDS011;15182;48.174;11.562;2023-05-14T03:57:58;9.73;;;8.53;;
27802;SDS011;15182;48.174;11.562;2023-05-14T04:00:26;14.53;;;9.10;;
27802;SDS011;15182;48.174;11.562;2023-05-14T04:02:54;9.53;;;8.47;;
27802;SDS011;15182;48.174;11.562;2023-05-14T04:05:23;10.07;;;8.50;;
27802;SDS011;15182;48.174;11.562;2023-05-14T04:07:50;13.47;;;9.53;;
27802;SDS011;15182;48.174;11.562;2023-05-14T04:10:19;9.80;;;8.90;;
27802;SDS011;15182;48.174;11.562;2023-05-14T04:12:48;14.03;;;9.23;;
27802;SDS011;15182;48.174;11.562;2023-05-14T04:15:17;11.67;;;9.03;;
27802;SDS011;15182;48.174;11.562;2023-05-14T04:17:44;11.70;;;9.03;;
27802;SDS011;15182;48.174;11.562;2023-05-14T04:20:12;11.00;;;9.10;;
27802;SDS011;15182;48.174;11.562;2023-05-14T04:22:40;14.17;;;9.07;;
27802;SDS011;15182;48.174;11.562;2023-05-14T04:25:07;12.00;;;9.80;;
27802;SDS011;15182;48.174;11.562;2023-05-14T04:27:35;11.03;;;8.87;;
27802;SDS011;15182;48.174;11.562;2023-05-14T04:30:06;11.80;;;9.20;;
27802;SDS011;15182;48.174;11.562;2023-05-14T04:32:35;9.67;;;8.67;;
27802;SDS011;15182;48.174;11.562;2023-05-14T04:35:04;10.57;;;8.93;;
27802;SDS011;15182;48.174;11.562;2023-05-14T04:37:33;9.53;;;8.53;;
27802;SDS011;15182;48.174;11.562;2023-05-14T04:40:01;10.47;;;8.80;;
27802;SDS011;15182;48.174;11.562;2023-05-14T04:42:30;10.57;;;9.30;;
27802;SDS011;15182;48.174;11.562;2023-05-14T04:44:58;12.23;;;9.60;;
27802;SDS011;15182;48.174;11.562;2023-05-14T04:47:27;10.93;;;8.13;;
27802;SDS011;15182;48.174;11.562;2023-05-14T04:49:55;12.53;;;8.97;;
27802;SDS011;15182;48.174;11.562;2023-05-14T04:52:23;11.00;;;9.33;;
27802;SDS011;15182;48.174;11.562;2023-05-14T04:54:51;12.07;;;9.27;;
27802;SDS011;15182;48.174;11.562;2023-05-14T04:57:19;19.20;;;9.43;;
27802;SDS011;15182;48.174;11.562;2023-05-14T04:59:47;11.03;;;9.63;;
27802;SDS011;15182;48.174;11.562;2023-05-14T05:02:15;10.20;;;9.17;;
27802;SDS011;15182;48.174;11.562;2023-05-14T05:04:44;12.70;;;9.53;;
27802;SDS011;15182;48.174;11.562;2023-05-14T05:07:12;10.97;;;9.10;;
27802;SDS011;15182;48.174;11.562;2023-05-14T05:09:39;16.23;;;9.83;;
27802;SDS011;15182;48.174;11.562;2023-05-14T05:12:09;10.93;;;8.97;;
27802;SDS011;15182;48.174;11.562;2023-05-14T05:14:36;11.40;;;9.20;;
27802;SDS011;15182;48.174;11.562;2023-05-14T05:17:04;9.93;;;8.27;;
27802;SDS011;15182;48.174;11.562;2023-05-14T05:19:32;11.93;;;9.63;;
27802;SDS011;15182;48.174;11.562;2023-05-14T05:22:01;11.47;;;8.87;;
27802;SDS011;15182;48.174;11.562;2023-05-14T05:24:29;12.07;;;9.57;;
27802;SDS011;15182;48.174;11.562;2023-05-14T05:26:56;11.77;;;9.63;;
27802;SDS011;15182;48.174;11.562;2023-05-14T05:29:24;10.30;;;9.07;;
27802;SDS011;15182;48.174;11.562;2023-05-14T05:31:52;12.57;;;9.67;;
27802;SDS011;15182;48.174;11.562;2023-05-14T05:34:19;11.07;;;9.50;;
27802;SDS011;15182;48.174;11.562;2023-05-14T05:36:47;12.10;;;9.20;;
27802;SDS011;15182;48.174;11.562;2023-05-14T05:39:16;11.70;;;9.17;;
27802;SDS011;15182;48.174;11.562;2023-05-14T05:41:44;12.80;;;9.30;;
27802;SDS011;15182;48.174;11.562;2023-05-14T05:44:11;16.23;;;9.63;;
27802;SDS011;15182;48.174;11.562;2023-05-14T05:46:39;13.87;;;9.93;;
27802;SDS011;15182;48.174;11.562;2023-05-14T05:49:07;11.10;;;9.17;;
27802;SDS011;15182;48.174;11.562;2023-05-14T05:51:34;11.87;;;9.23;;
27802;SDS011;15182;48.174;11.562;2023-05-14T05:54:02;15.93;;;9.80;;
27802;SDS011;15182;48.174;11.562;2023-05-14T05:56:31;10.90;;;9.57;;
27802;SDS011;15182;48.174;11.562;2023-05-14T05:58:59;11.67;;;9.03;;
27802;SDS011;15182;48.174;11.562;2023-05-14T06:01:28;15.30;;;10.53;;
27802;SDS011;15182;48.174;11.562;2023-05-14T06:03:56;12.73;;;10.00;;
27802;SDS011;15182;48.174;11.562;2023-05-14T06:06:24;12.30;;;9.63;;
27802;SDS011;15182;48.174;11.562;2023-05-14T06:08:51;12.97;;;9.37;;
27802;SDS011;15182;48.174;11.562;2023-05-14T06:11:19;13.43;;;8.63;;
27802;SDS011;15182;48.174;11.562;2023-05-14T06:13:48;13.47;;;10.17;;
27802;SDS011;15182;48.174;11.562;2023-05-14T06:16:16;10.10;;;9.00;;
27802;SDS011;15182;48.174;11.562;2023-05-14T06:18:43;13.73;;;10.23;;
27802;SDS011;15182;48.174;11.562;2023-05-14T06:21:11;12.50;;;9.23;;
27802;SDS011;15182;48.174;11.562;2023-05-14T06:23:39;13.27;;;9.83;;
27802;SDS011;15182;48.174;11.562;2023-05-14T06:26:07;13.33;;;9.00;;
27802;SDS011;15182;48.174;11.562;2023-05-14T06:28:34;12.60;;;9.70;;
27802;SDS011;15182;48.174;11.562;2023-05-14T06:31:04;13.67;;;10.03;;
27802;SDS011;15182;48.174;11.562;2023-05-14T06:33:31;12.97;;;9.83;;
27802;SDS011;15182;48.174;11.562;2023-05-14T06:35:59;13.00;;;9.77;;
27802;SDS011;15182;48.174;11.562;2023-05-14T06:38:30;12.30;;;9.70;;
27802;SDS011;15182;48.174;11.562;2023-05-14T06:40:58;13.27;;;9.63;;
27802;SDS011;15182;48.174;11.562;2023-05-14T06:43:25;12.47;;;8.63;;
27802;SDS011;15182;48.174;11.562;2023-05-14T06:45:53;14.07;;;9.57;;
27802;SDS011;15182;48.174;11.562;2023-05-14T06:48:22;9.93;;;8.90;;
27802;SDS011;15182;48.174;11.562;2023-05-14T06:50:52;12.43;;;8.90;;
27802;SDS011;15182;48.174;11.562;2023-05-14T06:53:20;11.27;;;8.90;;
27802;SDS011;15182;48.174;11.562;2023-05-14T06:55:47;12.80;;;8.80;;
27802;SDS011;15182;48.174;11.562;2023-05-14T06:58:15;9.30;;;8.00;;
27802;SDS011;15182;48.174;11.562;2023-05-14T07:00:43;13.93;;;9.10;;
27802;SDS011;15182;48.174;11.562;2023-05-14T07:03:11;11.47;;;8.80;;
27802;SDS011;15182;48.174;11.562;2023-05-14T07:05:40;9.63;;;8.67;;
27802;SDS011;15182;48.174;11.562;2023-05-14T07:08:09;10.83;;;8.80;;
27802;SDS011;15182;48.174;11.562;2023-05-14T07:10:37;10.50;;;8.50;;
27802;SDS011;15182;48.174;11.562;2023-05-14T07:13:05;10.23;;;8.80;;
27802;SDS011;15182;48.174;11.562;2023-05-14T07:15:34;9.93;;;8.93;;
27802;SDS011;15182;48.174;11.562;2023-05-14T07:18:02;18.70;;;9.83;;
27802;SDS011;15182;48.174;11.562;2023-05-14T07:20:30;12.47;;;9.53;;
27802;SDS011;15182;48.174;11.562;2023-05-14T07:22:59;12.27;;;10.37;;
27802;SDS011;15182;48.174;11.562;2023-05-14T07:25:27;13.63;;;9.70;;
27802;SDS011;15182;48.174;11.562;2023-05-14T07:27:55;11.63;;;9.40;;
27802;SDS011;15182;48.174;11.562;2023-05-14T07:30:22;11.67;;;9.90;;
27802;SDS011;15182;48.174;11.562;2023-05-14T07:32:50;12.33;;;9.57;;
27802;SDS011;15182;48.174;11.562;2023-05-14T07:35:18;12.60;;;9.87;;
27802;SDS011;15182;48.174;11.562;2023-05-14T07:37:46;13.73;;;9.87;;
27802;SDS011;15182;48.174;11.562;2023-05-14T07:40:15;11.00;;;8.63;;
27802;SDS011;15182;48.174;11.562;2023-05-14T07:42:43;13.80;;;10.00;;
27802;SDS011;15182;48.174;11.562;2023-05-14T07:45:11;12.73;;;9.30;;
27802;SDS011;15182;48.174;11.562;2023-05-14T07:47:38;11.73;;;9.00;;
27802;SDS011;15182;48.174;11.562;2023-05-14T07:50:06;14.60;;;9.57;;
27802;SDS011;15182;48.174;11.562;2023-05-14T07:52:35;13.60;;;9.77;;
27802;SDS011;15182;48.174;11.562;2023-05-14T07:55:03;14.80;;;9.27;;
27802;SDS011;15182;48.174;11.562;2023-05-14T07:57:33;10.87;;;8.80;;
27802;SDS011;15182;48.174;11.562;2023-05-14T08:00:02;10.73;;;9.40;;
27802;SDS011;15182;48.174;11.562;2023-05-14T08:02:38;12.47;;;9.07;;
27802;SDS011;15182;48.174;11.562;2023-05-14T08:05:07;12.17;;;9.37;;
27802;SDS011;15182;48.174;11.562;2023-05-14T08:07:35;11.87;;;9.20;;
27802;SDS011;15182;48.174;11.562;2023-05-14T08:10:03;16.03;;;9.40;;
27802;SDS011;15182;48.174;11.562;2023-05-14T08:12:34;11.33;;;8.93;;
27802;SDS011;15182;48.174;11.562;2023-05-14T08:15:02;12.70;;;9.53;;
27802;SDS011;15182;48.174;11.562;2023-05-14T08:17:32;9.73;;;8.53;;
27802;SDS011;15182;48.174;11.562;2023-05-14T08:20:00;10.80;;;8.93;;
27802;SDS011;15182;48.174;11.562;2023-05-14T08:22:28;9.90;;;8.27;;
27802;SDS011;15182;48.174;11.562;2023-05-14T08:24:55;9.77;;;8.23;;
27802;SDS011;15182;48.174;11.562;2023-05-14T08:27:23;12.20;;;8.77;;
27802;SDS011;15182;48.174;11.562;2023-05-14T08:29:53;10.43;;;8.17;;
27802;SDS011;15182;48.174;11.562;2023-05-14T08:32:20;9.20;;;7.93;;
27802;SDS011;15182;48.174;11.562;2023-05-14T08:34:48;8.47;;;7.67;;
27802;SDS011;15182;48.174;11.562;2023-05-14T08:37:16;11.10;;;7.93;;
27802;SDS011;15182;48.174;11.562;2023-05-14T08:39:44;8.90;;;7.23;;
27802;SDS011;15182;48.174;11.562;2023-05-14T08:42:11;9.77;;;8.00;;
27802;SDS011;15182;48.174;11.562;2023-05-14T08:44:43;8.70;;;7.43;;
27802;SDS011;15182;48.174;11.562;2023-05-14T08:47:16;8.70;;;7.87;;
27802;SDS011;15182;48.174;11.562;2023-05-14T08:49:48;8.97;;;7.93;;
27802;SDS011;15182;48.174;11.562;2023-05-14T08:52:21;9.50;;;8.13;;
27802;SDS011;15182;48.174;11.562;2023-05-14T08:54:49;8.87;;;7.93;;
27802;SDS011;15182;48.174;11.562;2023-05-14T08:57:19;13.13;;;8.23;;
27802;SDS011;15182;48.174;11.562;2023-05-14T08:59:49;8.87;;;7.93;;
27802;SDS011;15182;48.174;11.562;2023-05-14T09:02:19;9.13;;;8.20;;
27802;SDS011;15182;48.174;11.562;2023-05-14T09:04:49;9.80;;;7.97;;
27802;SDS011;15182;48.174;11.562;2023-05-14T09:07:23;8.40;;;7.67;;
27802;SDS011;15182;48.174;11.562;2023-05-14T09:09:51;8.73;;;7.67;;
27802;SDS011;15182;48.174;11.562;2023-05-14T09:12:20;9.17;;;8.27;;
27802;SDS011;15182;48.174;11.562;2023-05-14T09:14:48;8.57;;;7.77;;
27802;SDS011;15182;48.174;11.562;2023-05-14T09:17:17;11.33;;;8.27;;
27802;SDS011;15182;48.174;11.562;2023-05-14T09:19:46;8.50;;;7.33;;
27802;SDS011;15182;48.174;11.562;2023-05-14T09:22:18;7.97;;;7.23;;
27802;SDS011;15182;48.174;11.562;2023-05-14T09:24:46;8.53;;;7.43;;
27802;SDS011;15182;48.174;11.562;2023-05-14T09:27:29;8.10;;;7.43;;
27802;SDS011;15182;48.174;11.562;2023-05-14T09:30:08;7.43;;;6.80;;
27802;SDS011;15182;48.174;11.562;2023-05-14T09:32:39;9.27;;;8.03;;
27802;SDS011;15182;48.174;11.562;2023-05-14T09:35:11;7.60;;;7.00;;
27802;SDS011;15182;48.174;11.562;2023-05-14T09:37:42;8.23;;;7.50;;
27802;SDS011;15182;48.174;11.562;2023-05-14T09:40:11;8.00;;;7.33;;
27802;SDS011;15182;48.174;11.562;2023-05-14T09:42:40;8.00;;;7.17;;
27802;SDS011;15182;48.174;11.562;2023-05-14T09:45:09;7.20;;;6.60;;
27802;SDS011;15182;48.174;11.562;2023-05-14T09:47:41;8.77;;;7.23;;
27802;SDS011;15182;48.174;11.562;2023-05-14T09:50:09;9.13;;;6.57;;
27802;SDS011;15182;48.174;11.562;2023-05-14T09:52:37;7.90;;;7.20;;
27802;SDS011;15182;48.174;11.562;2023-05-14T09:55:05;6.90;;;6.30;;
27802;SDS011;15182;48.174;11.562;2023-05-14T09:57:34;7.33;;;6.73;;
27802;SDS011;15182;48.174;11.562;2023-05-14T10:00:02;7.73;;;7.17;;
27802;SDS011;15182;48.174;11.562;2023-05-14T10:02:34;7.30;;;6.60;;
27802;SDS011;15182;48.174;11.562;2023-05-14T10:05:07;6.83;;;6.33;;
27802;SDS011;15182;48.174;11.562;2023-05-14T10:07:38;8.50;;;7.53;;
27802;SDS011;15182;48.174;11.562;2023-05-14T10:10:09;8.37;;;7.70;;
27802;SDS011;15182;48.174;11.562;2023-05-14T10:12:42;7.97;;;7.20;;
27802;SDS011;15182;48.174;11.562;2023-05-14T10:15:18;8.50;;;7.83;;
27802;SDS011;15182;48.174;11.562;2023-05-14T10:17:53;8.70;;;7.97;;
27802;SDS011;15182;48.174;11.562;2023-05-14T10:20:25;8.40;;;7.70;;
27802;SDS011;15182;48.174;11.562;2023-05-14T10:22:57;8.90;;;7.57;;
27802;SDS011;15182;48.174;11.562;2023-05-14T10:25:24;8.33;;;7.63;;
27802;SDS011;15182;48.174;11.562;2023-05-14T10:27:53;8.30;;;7.70;;
27802;SDS011;15182;48.174;11.562;2023-05-14T10:30:21;8.10;;;7.47;;
27802;SDS011;15182;48.174;11.562;2023-05-14T10:32:48;7.83;;;7.20;;
27802;SDS011;15182;48.174;11.562;2023-05-14T10:35:33;7.53;;;6.90;;
27802;SDS011;15182;48.174;11.562;2023-05-14T10:38:20;6.90;;;6.50;;
27802;SDS011;15182;48.174;11.562;2023-05-14T10:40:53;7.57;;;6.97;;
27802;SDS011;15182;48.174;11.562;2023-05-14T10:43:28;6.60;;;6.20;;
27802;SDS011;15182;48.174;11.562;2023-05-14T10:45:57;7.57;;;6.97;;
27802;SDS011;15182;48.174;11.562;2023-05-14T10:48:26;6.93;;;6.43;;
27802;SDS011;15182;48.174;11.562;2023-05-14T10:50:55;7.03;;;6.53;;
27802;SDS011;15182;48.174;11.562;2023-05-14T10:53:30;6.47;;;6.07;;
27802;SDS011;15182;48.174;11.562;2023-05-14T10:56:01;6.60;;;6.20;;
27802;SDS011;15182;48.174;11.562;2023-05-14T10:58:30;7.00;;;6.33;;
27802;SDS011;15182;48.174;11.562;2023-05-14T11:01:01;6.60;;;6.10;;
27802;SDS011;15182;48.174;11.562;2023-05-14T11:03:30;6.70;;;6.27;;
27802;SDS011;15182;48.174;11.562;2023-05-14T11:06:07;6.67;;;6.27;;
27802;SDS011;15182;48.174;11.562;2023-05-14T11:08:38;6.90;;;6.33;;
27802;SDS011;15182;48.174;11.562;2023-05-14T11:11:07;6.57;;;6.07;;
27802;SDS011;15182;48.174;11.562;2023-05-14T11:13:36;6.33;;;5.93;;
27802;SDS011;15182;48.174;11.562;2023-05-14T11:16:04;6.80;;;6.17;;
27802;SDS011;15182;48.174;11.562;2023-05-14T11:18:33;6.90;;;6.30;;
27802;SDS011;15182;48.174;11.562;2023-05-14T11:21:03;6.50;;;6.00;;
27802;SDS011;15182;48.174;11.562;2023-05-14T11:23:32;7.07;;;6.57;;
27802;SDS011;15182;48.174;11.562;2023-05-14T11:26:00;6.03;;;5.53;;
27802;SDS011;15182;48.174;11.562;2023-05-14T11:28:27;8.50;;;6.37;;
27802;SDS011;15182;48.174;11.562;2023-05-14T11:30:55;7.37;;;6.87;;
27802;SDS011;15182;48.174;11.562;2023-05-14T11:33:23;6.40;;;6.00;;
27802;SDS011;15182;48.174;11.562;2023-05-14T11:35:54;6.07;;;5.77;;
27802;SDS011;15182;48.174;11.562;2023-05-14T11:38:22;5.73;;;5.43;;
27802;SDS011;15182;48.174;11.562;2023-05-14T11:40:54;6.40;;;6.00;;
27802;SDS011;15182;48.174;11.562;2023-05-14T11:43:24;6.53;;;6.13;;
27802;SDS011;15182;48.174;11.562;2023-05-14T11:45:54;6.00;;;5.70;;
27802;SDS011;15182;48.174;11.562;2023-05-14T11:48:22;6.20;;;5.70;;
27802;SDS011;15182;48.174;11.562;2023-05-14T11:50:50;6.50;;;6.10;;
27802;SDS011;15182;48.174;11.562;2023-05-14T11:53:18;6.53;;;5.93;;
27802;SDS011;15182;48.174;11.562;2023-05-14T11:55:51;6.10;;;5.73;;
27802;SDS011;15182;48.174;11.562;2023-05-14T11:58:22;6.00;;;5.40;;
27802;SDS011;15182;48.174;11.562;2023-05-14T12:00:51;6.27;;;5.97;;
27802;SDS011;15182;48.174;11.562;2023-05-14T12:03:21;6.00;;;5.70;;
27802;SDS011;15182;48.174;11.562;2023-05-14T12:05:55;5.93;;;5.60;;
27802;SDS011;15182;48.174;11.562;2023-05-14T12:08:25;6.87;;;6.47;;
27802;SDS011;15182;48.174;11.562;2023-05-14T12:10:56;5.50;;;5.30;;
27802;SDS011;15182;48.174;11.562;2023-05-14T12:13:26;6.00;;;5.70;;
27802;SDS011;15182;48.174;11.562;2023-05-14T12:15:54;6.30;;;6.00;;
27802;SDS011;15182;48.174;11.562;2023-05-14T12:18:28;6.57;;;6.17;;
27802;SDS011;15182;48.174;11.562;2023-05-14T12:21:00;6.80;;;6.40;;
27802;SDS011;15182;48.174;11.562;2023-05-14T12:23:29;6.80;;;6.30;;
27802;SDS011;15182;48.174;11.562;2023-05-14T12:26:01;7.03;;;6.53;;
27802;SDS011;15182;48.174;11.562;2023-05-14T12:28:30;6.50;;;6.10;;
27802;SDS011;15182;48.174;11.562;2023-05-14T12:30:58;6.57;;;6.07;;
27802;SDS011;15182;48.174;11.562;2023-05-14T12:33:26;7.17;;;6.67;;
27802;SDS011;15182;48.174;11.562;2023-05-14T12:35:54;6.70;;;6.40;;
27802;SDS011;15182;48.174;11.562;2023-05-14T12:38:26;6.30;;;5.83;;
27802;SDS011;15182;48.174;11.562;2023-05-14T12:40:54;6.43;;;5.83;;
27802;SDS011;15182;48.174;11.562;2023-05-14T12:43:23;5.73;;;5.43;;
27802;SDS011;15182;48.174;11.562;2023-05-14T12:45:54;5.70;;;5.43;;
27802;SDS011;15182;48.174;11.562;2023-05-14T12:48:22;5.90;;;5.67;;
27802;SDS011;15182;48.174;11.562;2023-05-14T12:50:50;5.60;;;5.30;;
27802;SDS011;15182;48.174;11.562;2023-05-14T12:53:17;5.70;;;5.40;;
27802;SDS011;15182;48.174;11.562;2023-05-14T12:55:45;5.07;;;4.77;;
27802;SDS011;15182;48.174;11.562;2023-05-14T12:58:14;5.43;;;5.18;;
27802;SDS011;15182;48.174;11.562;2023-05-14T13:00:47;5.30;;;4.93;;
27802;SDS011;15182;48.174;11.562;2023-05-14T13:03:17;5.17;;;4.97;;
27802;SDS011;15182;48.174;11.562;2023-05-14T13:05:46;5.00;;;4.80;;
27802;SDS011;15182;48.174;11.562;2023-05-14T13:08:14;5.25;;;5.05;;
27802;SDS011;15182;48.174;11.562;2023-05-14T13:10:42;5.00;;;4.80;;
27802;SDS011;15182;48.174;11.562;2023-05-14T13:13:10;5.75;;;5.35;;
27802;SDS011;15182;48.174;11.562;2023-05-14T13:15:43;4.80;;;4.60;;
27802;SDS011;15182;48.174;11.562;2023-05-14T13:18:11;4.23;;;4.10;;
27802;SDS011;15182;48.174;11.562;2023-05-14T13:20:39;4.10;;;4.00;;
27802;SDS011;15182;48.174;11.562;2023-05-14T13:23:08;4.03;;;3.92;;
27802;SDS011;15182;48.174;11.562;2023-05-14T13:25:38;4.25;;;4.07;;
27802;SDS011;15182;48.174;11.562;2023-05-14T13:28:07;4.25;;;4.15;;
27802;SDS011;15182;48.174;11.562;2023-05-14T13:30:34;4.03;;;3.92;;
27802;SDS011;15182;48.174;11.562;2023-05-14T13:33:11;4.45;;;4.25;;
27802;SDS011;15182;48.174;11.562;2023-05-14T13:35:38;4.63;;;4.43;;
27802;SDS011;15182;48.174;11.562;2023-05-14T13:38:10;4.60;;;4.40;;
27802;SDS011;15182;48.174;11.562;2023-05-14T13:40:38;4.72;;;4.40;;
27802;SDS011;15182;48.174;11.562;2023-05-14T13:43:06;4.93;;;4.60;;
27802;SDS011;15182;48.174;11.562;2023-05-14T13:45:33;4.05;;;3.95;;
27802;SDS011;15182;48.174;11.562;2023-05-14T13:48:01;4.95;;;4.57;;
27802;SDS011;15182;48.174;11.562;2023-05-14T13:50:31;5.13;;;4.90;;
27802;SDS011;15182;48.174;11.562;2023-05-14T13:53:01;5.10;;;4.80;;
27802;SDS011;15182;48.174;11.562;2023-05-14T13:55:30;8.00;;;7.20;;
27802;SDS011;15182;48.174;11.562;2023-05-14T13:58:02;22.77;;;20.35;;
27802;SDS011;15182;48.174;11.562;2023-05-14T14:00:30;32.88;;;24.48;;
27802;SDS011;15182;48.174;11.562;2023-05-14T14:02:57;55.17;;;44.20;;
27802;SDS011;15182;48.174;11.562;2023-05-14T14:05:28;58.78;;;42.78;;
27802;SDS011;15182;48.174;11.562;2023-05-14T14:07:57;24.20;;;20.08;;
27802;SDS011;15182;48.174;11.562;2023-05-14T14:10:25;12.85;;;11.65;;
27802;SDS011;15182;48.174;11.562;2023-05-14T14:12:54;10.70;;;9.80;;
27802;SDS011;15182;48.174;11.562;2023-05-14T14:15:22;11.63;;;10.63;;
27802;SDS011;15182;48.174;11.562;2023-05-14T14:17:49;6.72;;;6.35;;
27802;SDS011;15182;48.174;11.562;2023-05-14T14:20:17;5.25;;;5.05;;
27802;SDS011;15182;48.174;11.562;2023-05-14T14:22:45;4.28;;;4.18;;
27802;SDS011;15182;48.174;11.562;2023-05-14T14:25:14;4.35;;;4.18;;
27802;SDS011;15182;48.174;11.562;2023-05-14T14:27:42;3.72;;;3.63;;
27802;SDS011;15182;48.174;11.562;2023-05-14T14:30:10;3.55;;;3.45;;
27802;SDS011;15182;48.174;11.562;2023-05-14T14:32:41;3.40;;;3.30;;
27802;SDS011;15182;48.174;11.562;2023-05-14T14:35:10;3.33;;;3.00;;
27802;SDS011;15182;48.174;11.562;2023-05-14T14:37:39;3.17;;;3.17;;
27802;SDS011;15182;48.174;11.562;2023-05-14T14:40:10;3.35;;;3.10;;